sensor_id;sensor_type;location;lat;lon;timestamp;P1;durP1;ratioP1;P2;durP2;ratioP2
58250;SDS011;51449;51.676;5.812;2023-02-23T00:00:03;72.73;;;37.73;;
58250;SDS011;51449;51.676;5.812;2023-02-23T00:02:41;77.57;;;37.90;;
58250;SDS011;51449;51.676;5.812;2023-02-23T00:05:02;82.60;;;40.93;;
58250;SDS011;51449;51.676;5.812;2023-02-23T00:07:24;82.60;;;40.00;;
58250;SDS011;51449;51.676;5.812;2023-02-23T00:09:47;73.63;;;39.17;;
58250;SDS011;51449;51.676;5.812;2023-02-23T00:12:08;77.53;;;39.17;;
58250;SDS011;51449;51.676;5.812;2023-02-23T00:14:30;79.97;;;40.50;;
58250;SDS011;51449;51.676;5.812;2023-02-23T00:16:52;76.67;;;39.33;;
58250;SDS011;51449;51.676;5.812;2023-02-23T00:19:15;73.47;;;36.85;;
58250;SDS011;51449;51.676;5.812;2023-02-23T00:21:38;74.67;;;37.40;;
58250;SDS011;51449;51.676;5.812;2023-02-23T00:24:09;80.95;;;40.17;;
58250;SDS011;51449;51.676;5.812;2023-02-23T00:26:39;80.50;;;40.03;;
58250;SDS011;51449;51.676;5.812;2023-02-23T00:29:05;82.63;;;39.70;;
58250;SDS011;51449;51.676;5.812;2023-02-23T00:31:33;83.43;;;40.47;;
58250;SDS011;51449;51.676;5.812;2023-02-23T00:33:57;85.03;;;40.60;;
58250;SDS011;51449;51.676;5.812;2023-02-23T00:36:24;80.27;;;40.37;;
58250;SDS011;51449;51.676;5.812;2023-02-23T00:38:57;89.50;;;40.13;;
58250;SDS011;51449;51.676;5.812;2023-02-23T00:41:23;85.70;;;39.67;;
58250;SDS011;51449;51.676;5.812;2023-02-23T00:43:48;86.67;;;39.37;;
58250;SDS011;51449;51.676;5.812;2023-02-23T00:46:10;86.73;;;40.20;;
58250;SDS011;51449;51.676;5.812;2023-02-23T00:48:32;88.37;;;41.13;;
58250;SDS011;51449;51.676;5.812;2023-02-23T00:51:02;88.43;;;40.33;;
58250;SDS011;51449;51.676;5.812;2023-02-23T00:53:27;87.37;;;40.33;;
58250;SDS011;51449;51.676;5.812;2023-02-23T00:55:49;93.37;;;40.57;;
58250;SDS011;51449;51.676;5.812;2023-02-23T00:58:10;93.07;;;40.60;;
58250;SDS011;51449;51.676;5.812;2023-02-23T01:00:35;87.13;;;40.10;;
58250;SDS011;51449;51.676;5.812;2023-02-23T01:03:02;87.17;;;39.63;;
58250;SDS011;51449;51.676;5.812;2023-02-23T01:05:24;92.93;;;41.37;;
58250;SDS011;51449;51.676;5.812;2023-02-23T01:07:47;87.23;;;40.57;;
58250;SDS011;51449;51.676;5.812;2023-02-23T01:10:09;89.30;;;41.23;;
58250;SDS011;51449;51.676;5.812;2023-02-23T01:12:41;91.77;;;42.10;;
58250;SDS011;51449;51.676;5.812;2023-02-23T01:15:02;89.53;;;40.40;;
58250;SDS011;51449;51.676;5.812;2023-02-23T01:17:25;96.97;;;41.37;;
58250;SDS011;51449;51.676;5.812;2023-02-23T01:19:47;91.03;;;41.10;;
58250;SDS011;51449;51.676;5.812;2023-02-23T01:22:09;88.47;;;41.80;;
58250;SDS011;51449;51.676;5.812;2023-02-23T01:24:34;86.67;;;40.50;;
58250;SDS011;51449;51.676;5.812;2023-02-23T01:26:58;89.85;;;40.22;;
58250;SDS011;51449;51.676;5.812;2023-02-23T01:29:20;85.30;;;38.57;;
58250;SDS011;51449;51.676;5.812;2023-02-23T01:31:47;88.43;;;38.70;;
58250;SDS011;51449;51.676;5.812;2023-02-23T01:34:13;88.67;;;38.87;;
58250;SDS011;51449;51.676;5.812;2023-02-23T01:36:36;85.13;;;39.03;;
58250;SDS011;51449;51.676;5.812;2023-02-23T01:39:02;87.10;;;39.13;;
58250;SDS011;51449;51.676;5.812;2023-02-23T01:41:28;86.27;;;40.67;;
58250;SDS011;51449;51.676;5.812;2023-02-23T01:43:55;85.53;;;37.70;;
58250;SDS011;51449;51.676;5.812;2023-02-23T01:46:33;86.00;;;38.67;;
58250;SDS011;51449;51.676;5.812;2023-02-23T01:48:59;83.70;;;38.47;;
58250;SDS011;51449;51.676;5.812;2023-02-23T01:51:24;84.90;;;39.27;;
58250;SDS011;51449;51.676;5.812;2023-02-23T01:53:58;84.50;;;38.77;;
58250;SDS011;51449;51.676;5.812;2023-02-23T01:56:37;86.50;;;39.70;;
58250;SDS011;51449;51.676;5.812;2023-02-23T01:59:05;90.70;;;40.13;;
58250;SDS011;51449;51.676;5.812;2023-02-23T02:01:28;88.38;;;39.78;;
58250;SDS011;51449;51.676;5.812;2023-02-23T02:03:59;80.67;;;38.30;;
58250;SDS011;51449;51.676;5.812;2023-02-23T02:06:26;84.07;;;39.30;;
58250;SDS011;51449;51.676;5.812;2023-02-23T02:08:50;85.80;;;39.95;;
58250;SDS011;51449;51.676;5.812;2023-02-23T02:11:17;84.67;;;39.37;;
58250;SDS011;51449;51.676;5.812;2023-02-23T02:13:57;88.20;;;38.67;;
58250;SDS011;51449;51.676;5.812;2023-02-23T02:16:41;92.13;;;41.93;;
58250;SDS011;51449;51.676;5.812;2023-02-23T02:26:02;89.00;;;40.83;;
58250;SDS011;51449;51.676;5.812;2023-02-23T02:37:53;87.33;;;39.27;;
58250;SDS011;51449;51.676;5.812;2023-02-23T02:40:55;85.37;;;39.40;;
58250;SDS011;51449;51.676;5.812;2023-02-23T02:46:26;87.50;;;40.97;;
58250;SDS011;51449;51.676;5.812;2023-02-23T02:51:34;83.53;;;39.57;;
58250;SDS011;51449;51.676;5.812;2023-02-23T02:54:19;87.27;;;39.30;;
58250;SDS011;51449;51.676;5.812;2023-02-23T02:56:52;92.27;;;40.40;;
58250;SDS011;51449;51.676;5.812;2023-02-23T02:59:19;86.30;;;39.13;;
58250;SDS011;51449;51.676;5.812;2023-02-23T03:02:00;85.67;;;38.00;;
58250;SDS011;51449;51.676;5.812;2023-02-23T03:04:43;86.80;;;38.00;;
58250;SDS011;51449;51.676;5.812;2023-02-23T03:07:33;87.90;;;39.17;;
58250;SDS011;51449;51.676;5.812;2023-02-23T03:10:23;86.50;;;38.33;;
58250;SDS011;51449;51.676;5.812;2023-02-23T03:20:52;92.73;;;40.33;;
58250;SDS011;51449;51.676;5.812;2023-02-23T03:23:55;87.43;;;38.38;;
58250;SDS011;51449;51.676;5.812;2023-02-23T03:27:07;93.00;;;41.37;;
58250;SDS011;51449;51.676;5.812;2023-02-23T03:30:25;90.73;;;41.60;;
58250;SDS011;51449;51.676;5.812;2023-02-23T03:33:37;96.63;;;42.03;;
58250;SDS011;51449;51.676;5.812;2023-02-23T03:36:34;93.00;;;40.93;;
58250;SDS011;51449;51.676;5.812;2023-02-23T03:39:25;95.13;;;41.87;;
58250;SDS011;51449;51.676;5.812;2023-02-23T03:42:19;97.00;;;41.87;;
58250;SDS011;51449;51.676;5.812;2023-02-23T03:45:08;100.80;;;40.53;;
58250;SDS011;51449;51.676;5.812;2023-02-23T03:47:55;91.90;;;39.53;;
58250;SDS011;51449;51.676;5.812;2023-02-23T03:50:40;96.57;;;40.40;;
58250;SDS011;51449;51.676;5.812;2023-02-23T03:53:32;100.97;;;41.10;;
58250;SDS011;51449;51.676;5.812;2023-02-23T03:56:23;101.60;;;43.70;;
58250;SDS011;51449;51.676;5.812;2023-02-23T03:59:07;97.97;;;43.65;;
58250;SDS011;51449;51.676;5.812;2023-02-23T04:01:53;97.57;;;41.63;;
58250;SDS011;51449;51.676;5.812;2023-02-23T04:04:36;97.97;;;39.93;;
58250;SDS011;51449;51.676;5.812;2023-02-23T04:07:19;96.30;;;40.13;;
58250;SDS011;51449;51.676;5.812;2023-02-23T04:09:59;98.90;;;41.17;;
58250;SDS011;51449;51.676;5.812;2023-02-23T04:12:50;98.80;;;40.90;;
58250;SDS011;51449;51.676;5.812;2023-02-23T04:15:36;97.47;;;41.90;;
58250;SDS011;51449;51.676;5.812;2023-02-23T04:18:20;95.93;;;42.27;;
58250;SDS011;51449;51.676;5.812;2023-02-23T04:20:47;101.10;;;42.53;;
58250;SDS011;51449;51.676;5.812;2023-02-23T04:23:09;94.63;;;41.40;;
58250;SDS011;51449;51.676;5.812;2023-02-23T04:25:30;99.03;;;42.67;;
58250;SDS011;51449;51.676;5.812;2023-02-23T04:27:52;97.13;;;40.73;;
58250;SDS011;51449;51.676;5.812;2023-02-23T04:30:14;91.57;;;41.07;;
58250;SDS011;51449;51.676;5.812;2023-02-23T04:32:36;101.97;;;42.10;;
58250;SDS011;51449;51.676;5.812;2023-02-23T04:34:59;99.20;;;43.07;;
58250;SDS011;51449;51.676;5.812;2023-02-23T04:37:21;98.53;;;42.33;;
58250;SDS011;51449;51.676;5.812;2023-02-23T04:39:42;100.00;;;41.10;;
58250;SDS011;51449;51.676;5.812;2023-02-23T04:42:08;92.93;;;39.73;;
58250;SDS011;51449;51.676;5.812;2023-02-23T04:44:30;96.77;;;41.07;;
58250;SDS011;51449;51.676;5.812;2023-02-23T04:46:52;100.47;;;41.83;;
58250;SDS011;51449;51.676;5.812;2023-02-23T04:49:16;98.97;;;41.63;;
58250;SDS011;51449;51.676;5.812;2023-02-23T04:51:37;96.67;;;41.90;;
58250;SDS011;51449;51.676;5.812;2023-02-23T04:53:59;95.63;;;40.23;;
58250;SDS011;51449;51.676;5.812;2023-02-23T04:56:21;93.27;;;40.07;;
58250;SDS011;51449;51.676;5.812;2023-02-23T04:58:42;94.47;;;41.27;;
58250;SDS011;51449;51.676;5.812;2023-02-23T05:01:07;100.70;;;42.13;;
58250;SDS011;51449;51.676;5.812;2023-02-23T05:03:30;97.27;;;40.83;;
58250;SDS011;51449;51.676;5.812;2023-02-23T05:05:51;90.67;;;40.70;;
58250;SDS011;51449;51.676;5.812;2023-02-23T05:08:13;97.70;;;42.60;;
58250;SDS011;51449;51.676;5.812;2023-02-23T05:10:35;98.03;;;41.43;;
58250;SDS011;51449;51.676;5.812;2023-02-23T05:13:00;91.23;;;39.47;;
58250;SDS011;51449;51.676;5.812;2023-02-23T05:15:22;90.10;;;40.73;;
58250;SDS011;51449;51.676;5.812;2023-02-23T05:17:43;91.83;;;38.87;;
58250;SDS011;51449;51.676;5.812;2023-02-23T05:20:05;96.53;;;38.70;;
58250;SDS011;51449;51.676;5.812;2023-02-23T05:22:28;94.33;;;36.90;;
58250;SDS011;51449;51.676;5.812;2023-02-23T05:24:50;93.40;;;40.83;;
58250;SDS011;51449;51.676;5.812;2023-02-23T05:27:11;89.97;;;38.73;;
58250;SDS011;51449;51.676;5.812;2023-02-23T05:29:34;96.27;;;38.90;;
58250;SDS011;51449;51.676;5.812;2023-02-23T05:31:56;86.40;;;36.80;;
58250;SDS011;51449;51.676;5.812;2023-02-23T05:34:17;93.33;;;37.93;;
58250;SDS011;51449;51.676;5.812;2023-02-23T05:36:42;94.22;;;39.72;;
58250;SDS011;51449;51.676;5.812;2023-02-23T05:39:03;94.10;;;39.93;;
58250;SDS011;51449;51.676;5.812;2023-02-23T05:41:25;88.37;;;36.90;;
58250;SDS011;51449;51.676;5.812;2023-02-23T05:43:47;90.73;;;38.63;;
58250;SDS011;51449;51.676;5.812;2023-02-23T05:46:15;90.50;;;39.10;;
58250;SDS011;51449;51.676;5.812;2023-02-23T05:48:41;86.80;;;38.33;;
58250;SDS011;51449;51.676;5.812;2023-02-23T05:51:04;89.33;;;39.20;;
58250;SDS011;51449;51.676;5.812;2023-02-23T05:53:28;95.83;;;39.50;;
58250;SDS011;51449;51.676;5.812;2023-02-23T05:55:50;94.20;;;39.13;;
58250;SDS011;51449;51.676;5.812;2023-02-23T05:58:12;91.23;;;38.50;;
58250;SDS011;51449;51.676;5.812;2023-02-23T06:00:34;91.47;;;38.67;;
58250;SDS011;51449;51.676;5.812;2023-02-23T06:02:55;92.23;;;37.80;;
58250;SDS011;51449;51.676;5.812;2023-02-23T06:05:18;99.00;;;38.77;;
58250;SDS011;51449;51.676;5.812;2023-02-23T06:07:39;92.33;;;38.27;;
58250;SDS011;51449;51.676;5.812;2023-02-23T06:10:01;92.40;;;37.40;;
58250;SDS011;51449;51.676;5.812;2023-02-23T06:12:24;87.90;;;37.37;;
58250;SDS011;51449;51.676;5.812;2023-02-23T06:14:46;89.03;;;37.73;;
58250;SDS011;51449;51.676;5.812;2023-02-23T06:17:07;94.37;;;36.83;;
58250;SDS011;51449;51.676;5.812;2023-02-23T06:19:29;86.63;;;37.30;;
58250;SDS011;51449;51.676;5.812;2023-02-23T06:21:51;89.40;;;37.43;;
58250;SDS011;51449;51.676;5.812;2023-02-23T06:24:13;93.10;;;38.53;;
58250;SDS011;51449;51.676;5.812;2023-02-23T06:26:35;103.40;;;43.57;;
58250;SDS011;51449;51.676;5.812;2023-02-23T06:28:57;114.53;;;47.23;;
58250;SDS011;51449;51.676;5.812;2023-02-23T06:31:19;97.87;;;42.73;;
58250;SDS011;51449;51.676;5.812;2023-02-23T06:33:41;95.60;;;39.00;;
58250;SDS011;51449;51.676;5.812;2023-02-23T06:36:03;96.83;;;40.10;;
58250;SDS011;51449;51.676;5.812;2023-02-23T06:38:25;92.70;;;37.57;;
58250;SDS011;51449;51.676;5.812;2023-02-23T06:40:48;85.33;;;36.80;;
58250;SDS011;51449;51.676;5.812;2023-02-23T06:43:10;88.00;;;37.97;;
58250;SDS011;51449;51.676;5.812;2023-02-23T06:45:32;95.73;;;39.60;;
58250;SDS011;51449;51.676;5.812;2023-02-23T06:47:53;88.30;;;37.60;;
58250;SDS011;51449;51.676;5.812;2023-02-23T06:50:15;97.53;;;39.80;;
58250;SDS011;51449;51.676;5.812;2023-02-23T06:52:37;92.20;;;37.93;;
58250;SDS011;51449;51.676;5.812;2023-02-23T06:54:59;89.23;;;39.97;;
58250;SDS011;51449;51.676;5.812;2023-02-23T06:57:21;89.57;;;36.63;;
58250;SDS011;51449;51.676;5.812;2023-02-23T06:59:42;91.90;;;38.70;;
58250;SDS011;51449;51.676;5.812;2023-02-23T07:02:04;97.87;;;40.03;;
58250;SDS011;51449;51.676;5.812;2023-02-23T07:04:27;104.20;;;42.13;;
58250;SDS011;51449;51.676;5.812;2023-02-23T07:06:48;98.27;;;41.53;;
58250;SDS011;51449;51.676;5.812;2023-02-23T07:09:10;92.60;;;40.17;;
58250;SDS011;51449;51.676;5.812;2023-02-23T07:11:32;99.23;;;42.70;;
58250;SDS011;51449;51.676;5.812;2023-02-23T07:13:56;92.03;;;39.73;;
58250;SDS011;51449;51.676;5.812;2023-02-23T07:16:19;90.10;;;37.03;;
58250;SDS011;51449;51.676;5.812;2023-02-23T07:18:42;86.47;;;35.70;;
58250;SDS011;51449;51.676;5.812;2023-02-23T07:21:03;88.17;;;35.17;;
58250;SDS011;51449;51.676;5.812;2023-02-23T07:23:25;86.17;;;36.47;;
58250;SDS011;51449;51.676;5.812;2023-02-23T07:25:51;85.30;;;35.53;;
58250;SDS011;51449;51.676;5.812;2023-02-23T07:28:16;88.47;;;34.40;;
58250;SDS011;51449;51.676;5.812;2023-02-23T07:30:38;84.67;;;34.73;;
58250;SDS011;51449;51.676;5.812;2023-02-23T07:33:00;87.00;;;35.47;;
58250;SDS011;51449;51.676;5.812;2023-02-23T07:35:22;94.00;;;36.63;;
58250;SDS011;51449;51.676;5.812;2023-02-23T07:37:43;89.50;;;36.03;;
58250;SDS011;51449;51.676;5.812;2023-02-23T07:40:05;88.70;;;36.53;;
58250;SDS011;51449;51.676;5.812;2023-02-23T07:42:28;86.23;;;35.63;;
58250;SDS011;51449;51.676;5.812;2023-02-23T07:44:50;89.13;;;37.53;;
58250;SDS011;51449;51.676;5.812;2023-02-23T07:47:11;88.60;;;36.27;;
58250;SDS011;51449;51.676;5.812;2023-02-23T07:49:33;91.20;;;38.33;;
58250;SDS011;51449;51.676;5.812;2023-02-23T07:51:55;91.90;;;35.47;;
58250;SDS011;51449;51.676;5.812;2023-02-23T07:54:17;89.37;;;34.57;;
58250;SDS011;51449;51.676;5.812;2023-02-23T07:56:38;82.47;;;35.47;;
58250;SDS011;51449;51.676;5.812;2023-02-23T07:59:00;86.83;;;35.50;;
58250;SDS011;51449;51.676;5.812;2023-02-23T08:01:22;85.07;;;34.77;;
58250;SDS011;51449;51.676;5.812;2023-02-23T08:03:43;84.27;;;34.63;;
58250;SDS011;51449;51.676;5.812;2023-02-23T08:06:09;88.83;;;36.10;;
58250;SDS011;51449;51.676;5.812;2023-02-23T08:08:31;85.73;;;34.10;;
58250;SDS011;51449;51.676;5.812;2023-02-23T08:10:58;83.67;;;33.93;;
58250;SDS011;51449;51.676;5.812;2023-02-23T08:13:24;85.90;;;36.07;;
58250;SDS011;51449;51.676;5.812;2023-02-23T08:15:46;86.13;;;37.13;;
58250;SDS011;51449;51.676;5.812;2023-02-23T08:18:08;85.17;;;35.87;;
58250;SDS011;51449;51.676;5.812;2023-02-23T08:20:30;81.20;;;34.20;;
58250;SDS011;51449;51.676;5.812;2023-02-23T08:22:55;71.07;;;31.93;;
58250;SDS011;51449;51.676;5.812;2023-02-23T08:25:18;83.07;;;34.90;;
58250;SDS011;51449;51.676;5.812;2023-02-23T08:27:39;79.80;;;33.17;;
58250;SDS011;51449;51.676;5.812;2023-02-23T08:30:01;86.50;;;35.63;;
58250;SDS011;51449;51.676;5.812;2023-02-23T08:32:25;82.00;;;35.72;;
58250;SDS011;51449;51.676;5.812;2023-02-23T08:34:47;73.83;;;32.70;;
58250;SDS011;51449;51.676;5.812;2023-02-23T08:37:09;81.57;;;34.10;;
58250;SDS011;51449;51.676;5.812;2023-02-23T08:39:34;71.33;;;33.17;;
58250;SDS011;51449;51.676;5.812;2023-02-23T08:41:55;73.17;;;33.03;;
58250;SDS011;51449;51.676;5.812;2023-02-23T08:44:17;71.87;;;31.07;;
58250;SDS011;51449;51.676;5.812;2023-02-23T08:46:39;76.80;;;32.43;;
58250;SDS011;51449;51.676;5.812;2023-02-23T08:49:00;75.47;;;32.87;;
58250;SDS011;51449;51.676;5.812;2023-02-23T08:51:23;66.40;;;30.20;;
58250;SDS011;51449;51.676;5.812;2023-02-23T08:53:47;72.80;;;30.63;;
58250;SDS011;51449;51.676;5.812;2023-02-23T08:56:09;69.20;;;29.53;;
58250;SDS011;51449;51.676;5.812;2023-02-23T08:58:34;69.53;;;30.65;;
58250;SDS011;51449;51.676;5.812;2023-02-23T09:00:57;66.35;;;29.80;;
58250;SDS011;51449;51.676;5.812;2023-02-23T09:03:20;67.80;;;30.57;;
58250;SDS011;51449;51.676;5.812;2023-02-23T09:05:43;73.77;;;33.40;;
58250;SDS011;51449;51.676;5.812;2023-02-23T09:08:05;67.43;;;30.87;;
58250;SDS011;51449;51.676;5.812;2023-02-23T09:10:27;72.03;;;32.37;;
58250;SDS011;51449;51.676;5.812;2023-02-23T09:12:49;65.80;;;30.10;;
58250;SDS011;51449;51.676;5.812;2023-02-23T09:15:11;67.60;;;29.97;;
58250;SDS011;51449;51.676;5.812;2023-02-23T09:17:33;68.27;;;29.17;;
58250;SDS011;51449;51.676;5.812;2023-02-23T09:19:55;71.63;;;32.53;;
58250;SDS011;51449;51.676;5.812;2023-02-23T09:22:16;65.60;;;30.57;;
58250;SDS011;51449;51.676;5.812;2023-02-23T09:24:38;67.90;;;31.13;;
58250;SDS011;51449;51.676;5.812;2023-02-23T09:27:00;67.10;;;29.13;;
58250;SDS011;51449;51.676;5.812;2023-02-23T09:29:22;63.40;;;29.77;;
58250;SDS011;51449;51.676;5.812;2023-02-23T09:31:43;64.83;;;29.53;;
58250;SDS011;51449;51.676;5.812;2023-02-23T09:34:05;58.43;;;28.40;;
58250;SDS011;51449;51.676;5.812;2023-02-23T09:36:29;63.20;;;27.10;;
58250;SDS011;51449;51.676;5.812;2023-02-23T09:38:52;56.73;;;26.97;;
58250;SDS011;51449;51.676;5.812;2023-02-23T09:47:53;64.77;;;29.63;;
58250;SDS011;51449;51.676;5.812;2023-02-23T09:50:53;60.40;;;27.80;;
58250;SDS011;51449;51.676;5.812;2023-02-23T09:56:13;60.80;;;29.07;;
58250;SDS011;51449;51.676;5.812;2023-02-23T09:58:58;61.13;;;28.77;;
58250;SDS011;51449;51.676;5.812;2023-02-23T10:10:37;59.60;;;27.37;;
58250;SDS011;51449;51.676;5.812;2023-02-23T10:13:02;58.80;;;28.03;;
58250;SDS011;51449;51.676;5.812;2023-02-23T10:15:56;58.47;;;27.00;;
58250;SDS011;51449;51.676;5.812;2023-02-23T10:18:43;60.47;;;27.27;;
58250;SDS011;51449;51.676;5.812;2023-02-23T10:21:30;60.40;;;28.60;;
58250;SDS011;51449;51.676;5.812;2023-02-23T10:24:00;62.60;;;28.50;;
58250;SDS011;51449;51.676;5.812;2023-02-23T10:26:38;61.67;;;29.27;;
58250;SDS011;51449;51.676;5.812;2023-02-23T10:29:14;64.63;;;29.33;;
58250;SDS011;51449;51.676;5.812;2023-02-23T10:31:50;62.50;;;28.93;;
58250;SDS011;51449;51.676;5.812;2023-02-23T10:34:19;63.43;;;28.37;;
58250;SDS011;51449;51.676;5.812;2023-02-23T10:36:49;62.00;;;27.88;;
58250;SDS011;51449;51.676;5.812;2023-02-23T10:39:24;64.13;;;30.07;;
58250;SDS011;51449;51.676;5.812;2023-02-23T10:41:46;61.90;;;27.70;;
58250;SDS011;51449;51.676;5.812;2023-02-23T10:44:16;64.73;;;29.93;;
58250;SDS011;51449;51.676;5.812;2023-02-23T10:46:41;62.33;;;28.10;;
58250;SDS011;51449;51.676;5.812;2023-02-23T10:49:09;57.77;;;27.83;;
58250;SDS011;51449;51.676;5.812;2023-02-23T10:51:42;64.37;;;29.07;;
58250;SDS011;51449;51.676;5.812;2023-02-23T10:56:56;62.83;;;28.17;;
58250;SDS011;51449;51.676;5.812;2023-02-23T10:59:19;64.70;;;28.10;;
58250;SDS011;51449;51.676;5.812;2023-02-23T11:01:41;58.00;;;28.47;;
58250;SDS011;51449;51.676;5.812;2023-02-23T11:04:23;64.37;;;27.77;;
58250;SDS011;51449;51.676;5.812;2023-02-23T11:06:49;63.10;;;28.70;;
58250;SDS011;51449;51.676;5.812;2023-02-23T11:09:23;59.70;;;26.90;;
58250;SDS011;51449;51.676;5.812;2023-02-23T11:12:49;62.40;;;27.30;;
58250;SDS011;51449;51.676;5.812;2023-02-23T11:15:25;63.78;;;28.50;;
58250;SDS011;51449;51.676;5.812;2023-02-23T11:18:17;59.63;;;27.80;;
58250;SDS011;51449;51.676;5.812;2023-02-23T11:20:43;57.70;;;26.57;;
58250;SDS011;51449;51.676;5.812;2023-02-23T11:23:11;52.40;;;25.27;;
58250;SDS011;51449;51.676;5.812;2023-02-23T11:25:43;54.83;;;25.93;;
58250;SDS011;51449;51.676;5.812;2023-02-23T11:28:14;56.85;;;25.90;;
58250;SDS011;51449;51.676;5.812;2023-02-23T11:30:42;52.07;;;23.67;;
58250;SDS011;51449;51.676;5.812;2023-02-23T11:33:04;58.67;;;26.50;;
58250;SDS011;51449;51.676;5.812;2023-02-23T11:35:31;52.13;;;24.30;;
58250;SDS011;51449;51.676;5.812;2023-02-23T11:37:53;52.20;;;23.87;;
58250;SDS011;51449;51.676;5.812;2023-02-23T11:40:20;50.07;;;23.83;;
58250;SDS011;51449;51.676;5.812;2023-02-23T11:43:34;52.20;;;22.50;;
58250;SDS011;51449;51.676;5.812;2023-02-23T11:45:38;54.63;;;24.33;;
58250;SDS011;51449;51.676;5.812;2023-02-23T11:48:26;53.83;;;25.20;;
58250;SDS011;51449;51.676;5.812;2023-02-23T11:50:54;52.37;;;23.43;;
58250;SDS011;51449;51.676;5.812;2023-02-23T11:53:19;58.87;;;26.60;;
58250;SDS011;51449;51.676;5.812;2023-02-23T11:55:49;52.67;;;25.00;;
58250;SDS011;51449;51.676;5.812;2023-02-23T11:58:19;50.53;;;24.90;;
58250;SDS011;51449;51.676;5.812;2023-02-23T12:00:58;46.53;;;21.27;;
58250;SDS011;51449;51.676;5.812;2023-02-23T12:03:32;47.47;;;22.20;;
58250;SDS011;51449;51.676;5.812;2023-02-23T12:05:55;49.87;;;23.80;;
58250;SDS011;51449;51.676;5.812;2023-02-23T12:10:54;47.63;;;22.87;;
58250;SDS011;51449;51.676;5.812;2023-02-23T12:13:31;50.53;;;22.60;;
58250;SDS011;51449;51.676;5.812;2023-02-23T12:18:48;45.67;;;20.83;;
58250;SDS011;51449;51.676;5.812;2023-02-23T12:21:40;47.20;;;22.20;;
58250;SDS011;51449;51.676;5.812;2023-02-23T12:29:38;42.60;;;20.60;;
58250;SDS011;51449;51.676;5.812;2023-02-23T12:32:23;40.50;;;18.47;;
58250;SDS011;51449;51.676;5.812;2023-02-23T12:37:42;33.77;;;16.83;;
58250;SDS011;51449;51.676;5.812;2023-02-23T12:40:21;41.53;;;18.50;;
58250;SDS011;51449;51.676;5.812;2023-02-23T12:48:05;36.53;;;18.17;;
58250;SDS011;51449;51.676;5.812;2023-02-23T12:50:39;38.30;;;19.57;;
58250;SDS011;51449;51.676;5.812;2023-02-23T12:58:39;35.70;;;17.60;;
58250;SDS011;51449;51.676;5.812;2023-02-23T13:01:50;38.60;;;18.10;;
58250;SDS011;51449;51.676;5.812;2023-02-23T13:07:34;36.50;;;18.50;;
58250;SDS011;51449;51.676;5.812;2023-02-23T13:13:29;35.97;;;18.47;;
58250;SDS011;51449;51.676;5.812;2023-02-23T13:21:51;31.23;;;16.77;;
58250;SDS011;51449;51.676;5.812;2023-02-23T13:24:23;29.93;;;14.13;;
58250;SDS011;51449;51.676;5.812;2023-02-23T13:26:58;28.80;;;15.37;;
58250;SDS011;51449;51.676;5.812;2023-02-23T13:29:40;31.07;;;15.87;;
58250;SDS011;51449;51.676;5.812;2023-02-23T13:32:13;27.33;;;13.57;;
58250;SDS011;51449;51.676;5.812;2023-02-23T13:37:24;27.03;;;14.13;;
58250;SDS011;51449;51.676;5.812;2023-02-23T13:40:39;28.38;;;15.98;;
58250;SDS011;51449;51.676;5.812;2023-02-23T13:43:04;29.00;;;15.67;;
58250;SDS011;51449;51.676;5.812;2023-02-23T13:56:47;25.37;;;13.73;;
58250;SDS011;51449;51.676;5.812;2023-02-23T13:59:17;24.47;;;13.23;;
58250;SDS011;51449;51.676;5.812;2023-02-23T14:01:44;20.33;;;10.57;;
58250;SDS011;51449;51.676;5.812;2023-02-23T14:04:14;19.63;;;10.47;;
58250;SDS011;51449;51.676;5.812;2023-02-23T14:07:00;19.63;;;10.67;;
58250;SDS011;51449;51.676;5.812;2023-02-23T14:09:39;17.03;;;8.97;;
58250;SDS011;51449;51.676;5.812;2023-02-23T14:19:37;16.53;;;7.80;;
58250;SDS011;51449;51.676;5.812;2023-02-23T14:22:04;16.00;;;8.43;;
58250;SDS011;51449;51.676;5.812;2023-02-23T14:24:35;14.77;;;7.70;;
58250;SDS011;51449;51.676;5.812;2023-02-23T14:29:29;15.30;;;7.73;;
58250;SDS011;51449;51.676;5.812;2023-02-23T14:32:25;15.77;;;8.50;;
58250;SDS011;51449;51.676;5.812;2023-02-23T14:34:52;17.70;;;9.68;;
58250;SDS011;51449;51.676;5.812;2023-02-23T14:37:25;19.43;;;9.63;;
58250;SDS011;51449;51.676;5.812;2023-02-23T14:39:54;18.03;;;9.50;;
58250;SDS011;51449;51.676;5.812;2023-02-23T14:42:27;17.70;;;8.63;;
58250;SDS011;51449;51.676;5.812;2023-02-23T14:44:53;20.77;;;9.70;;
58250;SDS011;51449;51.676;5.812;2023-02-23T14:47:19;20.60;;;9.00;;
58250;SDS011;51449;51.676;5.812;2023-02-23T14:49:48;21.60;;;9.97;;
58250;SDS011;51449;51.676;5.812;2023-02-23T14:52:18;19.37;;;9.47;;
58250;SDS011;51449;51.676;5.812;2023-02-23T14:54:45;18.10;;;8.77;;
58250;SDS011;51449;51.676;5.812;2023-02-23T14:57:23;15.77;;;9.00;;
58250;SDS011;51449;51.676;5.812;2023-02-23T14:59:59;19.87;;;9.03;;
58250;SDS011;51449;51.676;5.812;2023-02-23T15:02:28;17.77;;;8.10;;
58250;SDS011;51449;51.676;5.812;2023-02-23T15:04:51;15.93;;;8.10;;
58250;SDS011;51449;51.676;5.812;2023-02-23T15:07:14;17.53;;;8.27;;
58250;SDS011;51449;51.676;5.812;2023-02-23T15:09:45;19.20;;;8.93;;
58250;SDS011;51449;51.676;5.812;2023-02-23T15:12:27;14.90;;;7.27;;
58250;SDS011;51449;51.676;5.812;2023-02-23T15:14:56;15.87;;;7.43;;
58250;SDS011;51449;51.676;5.812;2023-02-23T15:17:23;17.60;;;8.20;;
58250;SDS011;51449;51.676;5.812;2023-02-23T15:19:55;15.63;;;7.93;;
58250;SDS011;51449;51.676;5.812;2023-02-23T15:22:37;15.57;;;7.90;;
58250;SDS011;51449;51.676;5.812;2023-02-23T15:25:07;15.40;;;7.80;;
58250;SDS011;51449;51.676;5.812;2023-02-23T15:27:41;15.77;;;7.23;;
58250;SDS011;51449;51.676;5.812;2023-02-23T15:30:22;15.00;;;7.20;;
58250;SDS011;51449;51.676;5.812;2023-02-23T15:32:48;17.50;;;8.37;;
58250;SDS011;51449;51.676;5.812;2023-02-23T15:35:20;16.27;;;7.90;;
58250;SDS011;51449;51.676;5.812;2023-02-23T15:37:43;15.07;;;7.37;;
58250;SDS011;51449;51.676;5.812;2023-02-23T15:40:26;13.85;;;7.05;;
58250;SDS011;51449;51.676;5.812;2023-02-23T15:42:50;16.27;;;6.90;;
58250;SDS011;51449;51.676;5.812;2023-02-23T15:45:24;14.67;;;6.77;;
58250;SDS011;51449;51.676;5.812;2023-02-23T15:47:58;15.40;;;7.37;;
58250;SDS011;51449;51.676;5.812;2023-02-23T15:50:27;13.77;;;7.87;;
58250;SDS011;51449;51.676;5.812;2023-02-23T15:52:59;13.37;;;6.40;;
58250;SDS011;51449;51.676;5.812;2023-02-23T15:55:31;10.07;;;5.60;;
58250;SDS011;51449;51.676;5.812;2023-02-23T15:57:58;13.50;;;7.27;;
58250;SDS011;51449;51.676;5.812;2023-02-23T16:00:33;13.47;;;6.37;;
58250;SDS011;51449;51.676;5.812;2023-02-23T16:03:02;15.40;;;7.60;;
58250;SDS011;51449;51.676;5.812;2023-02-23T16:05:27;15.30;;;7.37;;
58250;SDS011;51449;51.676;5.812;2023-02-23T16:08:17;13.77;;;6.70;;
58250;SDS011;51449;51.676;5.812;2023-02-23T16:10:44;15.30;;;7.93;;
58250;SDS011;51449;51.676;5.812;2023-02-23T16:13:08;15.90;;;8.15;;
58250;SDS011;51449;51.676;5.812;2023-02-23T16:15:34;15.20;;;6.60;;
58250;SDS011;51449;51.676;5.812;2023-02-23T16:18:00;14.80;;;6.93;;
58250;SDS011;51449;51.676;5.812;2023-02-23T16:20:36;14.13;;;6.33;;
58250;SDS011;51449;51.676;5.812;2023-02-23T16:23:02;14.87;;;6.73;;
58250;SDS011;51449;51.676;5.812;2023-02-23T16:25:26;16.35;;;7.55;;